createdAt,value
2022-08-21T00:02:00.159Z,-23669.13
2022-08-21T00:04:06.627Z,-23668.19
2022-08-21T00:06:09.762Z,-23666.16
2022-08-21T00:08:17.118Z,-23666.78
2022-08-21T00:10:20.477Z,-23666.47
2022-08-21T00:12:24.607Z,-23666.16
2022-08-21T00:14:27.371Z,-23665.03
2022-08-21T00:16:35.103Z,-23665.19
2022-08-21T00:18:37.981Z,-23663.16
2022-08-21T00:20:42.725Z,-23662.69
2022-08-21T00:22:46.013Z,-23663.94
2022-08-21T00:24:48.778Z,-23664.25
2022-08-21T00:26:52.224Z,-23662.69
2022-08-21T00:28:56.295Z,-23661.72
2022-08-21T00:31:01.956Z,-23660.16
2022-08-21T00:33:05.794Z,-23659.53
2022-08-21T00:35:12.522Z,-23658.56
2022-08-21T00:37:15.265Z,-23659.38
2022-08-21T00:39:17.956Z,-23661.88
2022-08-21T00:41:36.787Z,-23660.16
2022-08-21T00:43:41.782Z,-23659.22
2022-08-21T00:45:46.161Z,-23659.22
2022-08-21T00:47:48.855Z,-23657.00
2022-08-21T00:49:51.724Z,-23655.28
2022-08-21T00:51:57.658Z,-23652.44
2022-08-21T00:54:03.507Z,-23651.00
2022-08-21T00:56:08.918Z,-23646.91
2022-08-21T00:58:17.331Z,-23646.91
2022-08-21T01:00:25.005Z,-23645.16
2022-08-21T01:02:29.125Z,-23644.53
2022-08-21T01:04:34.153Z,-23646.75
2022-08-21T01:06:36.856Z,-23645.31
2022-08-21T01:08:39.892Z,-23644.38
2022-08-21T01:10:54.597Z,-23642.47
2022-08-21T01:12:59.544Z,-23643.59
2022-08-21T01:15:04.470Z,-23644.38
2022-08-21T01:17:07.839Z,-23646.59
2022-08-21T01:19:12.947Z,-23645.66
2022-08-21T01:21:19.795Z,-23643.44
2022-08-21T01:23:22.517Z,-23642.47
2022-08-21T01:25:25.415Z,-23642.16
2022-08-21T01:27:28.084Z,-23641.84
2022-08-21T01:29:36.252Z,-23641.84
2022-08-21T01:31:39.407Z,-23641.69
2022-08-21T01:33:42.296Z,-23640.28
2022-08-21T01:35:44.977Z,-23639.00
2022-08-21T01:37:50.081Z,-23638.69
2022-08-21T01:39:53.227Z,-23634.91
2022-08-21T01:41:56.021Z,-23636.19
2022-08-21T01:43:58.671Z,-23635.88
2022-08-21T01:46:01.379Z,-23635.06
2022-08-21T01:48:04.631Z,-23633.03
2022-08-21T01:50:11.041Z,-23631.44
2022-08-21T01:52:13.996Z,-23633.19
2022-08-21T01:54:18.196Z,-23636.97
2022-08-21T01:56:20.992Z,-23637.75
2022-08-21T01:58:23.748Z,-23634.44
2022-08-21T02:00:27.010Z,-23634.28
2022-08-21T02:02:29.779Z,-23634.59
2022-08-21T02:04:32.678Z,-23632.38
2022-08-21T02:06:35.851Z,-23633.97
2022-08-21T02:08:38.527Z,-23633.66
2022-08-21T02:10:43.559Z,-23633.03
2022-08-21T02:12:52.181Z,-23633.81
2022-08-21T02:14:54.986Z,-23633.50
2022-08-21T02:17:05.278Z,-23635.22
2022-08-21T02:19:13.424Z,-23633.66
2022-08-21T02:21:16.364Z,-23633.34
2022-08-21T02:23:20.019Z,-23632.06
2022-08-21T02:25:31.293Z,-23633.66
2022-08-21T02:27:42.503Z,-23633.03
2022-08-21T02:29:45.153Z,-23631.44
2022-08-21T02:31:47.794Z,-23630.34
2022-08-21T02:33:50.587Z,-23627.97
2022-08-21T02:35:53.913Z,-23625.75
2022-08-21T02:38:00.350Z,-23622.91
2022-08-21T02:40:03.265Z,-23627.97
2022-08-21T02:42:06.352Z,-23624.81
2022-08-21T02:44:10.383Z,-23621.81
2022-08-21T02:46:15.697Z,-23623.72
2022-08-21T02:48:20.235Z,-23623.88
2022-08-21T02:50:27.759Z,-23617.53
2022-08-21T02:52:30.432Z,-23615.34
2022-08-21T02:54:33.209Z,-23610.91
2022-08-21T02:56:35.853Z,-23610.91
2022-08-21T02:58:42.647Z,-23609.03
2022-08-21T03:00:46.981Z,-23611.53
2022-08-21T03:02:50.007Z,-23614.22
2022-08-21T03:04:52.668Z,-23610.13
2022-08-21T03:06:55.332Z,-23606.66
2022-08-21T03:08:58.569Z,-23608.69
2022-08-21T03:11:02.285Z,-23612.81
2022-08-21T03:13:05.384Z,-23609.34
2022-08-21T03:15:10.875Z,-23612.81
2022-08-21T03:17:14.929Z,-23613.28
2022-08-21T03:19:17.981Z,-23610.75
2022-08-21T03:21:20.804Z,-23609.19
2022-08-21T03:23:23.620Z,-23610.28
2022-08-21T03:25:39.712Z,-23611.22
2022-08-21T03:27:44.262Z,-23612.50
2022-08-21T03:29:47.111Z,-23611.53
2022-08-21T03:31:49.816Z,-23612.34
2022-08-21T03:33:55.950Z,-23612.50
2022-08-21T03:36:02.142Z,-23610.59
2022-08-21T03:38:04.849Z,-23610.28
2022-08-21T03:40:10.430Z,-23611.88
2022-08-21T03:42:13.531Z,-23610.59
2022-08-21T03:44:16.203Z,-23612.19
2022-08-21T03:46:18.922Z,-23611.88
2022-08-21T03:48:22.038Z,-23610.44
2022-08-21T03:50:28.163Z,-23608.88
2022-08-21T03:52:31.324Z,-23609.34
2022-08-21T03:54:34.120Z,-23609.19
2022-08-21T03:56:36.811Z,-23609.81
2022-08-21T03:58:40.266Z,-23609.03
2022-08-21T04:00:42.920Z,-23608.69
2022-08-21T04:02:45.795Z,-23608.06
2022-08-21T04:04:48.484Z,-23605.84
2022-08-21T04:06:52.836Z,-23605.53
2022-08-21T04:08:55.932Z,-23604.75
2022-08-21T04:11:00.119Z,-23601.13
2022-08-21T04:13:03.051Z,-23602.88
2022-08-21T04:15:06.673Z,-23601.91
2022-08-21T04:17:09.387Z,-23600.34
2022-08-21T04:19:12.959Z,-23600.50
2022-08-21T04:21:15.892Z,-23600.50
2022-08-21T04:23:23.615Z,-23601.44
2022-08-21T04:25:27.382Z,-23602.06
2022-08-21T04:27:30.007Z,-23602.53
2022-08-21T04:29:34.354Z,-23602.88
2022-08-21T04:31:40.014Z,-23601.91
2022-08-21T04:33:42.666Z,-23599.84
2022-08-21T04:35:45.482Z,-23602.06
2022-08-21T04:37:48.260Z,-23603.34
2022-08-21T04:39:53.661Z,-23603.66
2022-08-21T04:41:56.429Z,-23604.59
2022-08-21T04:43:59.148Z,-23605.72
2022-08-21T04:46:02.176Z,-23607.44
2022-08-21T04:48:13.750Z,-23607.13
2022-08-21T04:50:17.933Z,-23606.81
2022-08-21T04:52:24.051Z,-23607.75
2022-08-21T04:54:27.148Z,-23610.59
2022-08-21T04:56:34.040Z,-23611.88
2022-08-21T04:58:38.270Z,-23613.75
2022-08-21T05:00:42.357Z,-23615.81
2022-08-21T05:02:45.218Z,-23616.91
2022-08-21T05:04:51.990Z,-23620.56
2022-08-21T05:06:58.459Z,-23621.03
2022-08-21T05:09:02.910Z,-23621.97
2022-08-21T05:11:06.643Z,-23624.50
2022-08-21T05:13:11.152Z,-23625.13
2022-08-21T05:15:14.412Z,-23626.72
2022-08-21T05:17:17.138Z,-23629.88
2022-08-21T05:19:19.804Z,-23629.56
2022-08-21T05:21:22.720Z,-23632.06
2022-08-21T05:23:25.872Z,-23633.97
2022-08-21T05:25:29.002Z,-23635.53
2022-08-21T05:27:32.813Z,-23638.22
2022-08-21T05:29:37.854Z,-23646.59
2022-08-21T05:31:40.764Z,-23650.69
2022-08-21T05:33:44.013Z,-23649.25
2022-08-21T05:35:46.883Z,-23648.16
2022-08-21T05:37:51.033Z,-23651.63
2022-08-21T05:40:05.254Z,-23654.78
2022-08-21T05:42:16.385Z,-23654.47
2022-08-21T05:44:19.106Z,-23657.16
2022-08-21T05:46:24.588Z,-23660.78
2022-08-21T05:48:27.299Z,-23664.25
2022-08-21T05:50:33.527Z,-23665.19
2022-08-21T05:52:36.472Z,-23666.16
2022-08-21T05:54:39.755Z,-23667.41
2022-08-21T05:56:45.433Z,-23667.25
2022-08-21T05:58:48.130Z,-23670.72
2022-08-21T06:00:52.792Z,-23673.09
2022-08-21T06:02:57.099Z,-23675.91
2022-08-21T06:04:59.868Z,-23678.59
2022-08-21T06:07:02.563Z,-23683.47
2022-08-21T06:09:06.492Z,-23686.94
2022-08-21T06:11:09.808Z,-23687.25
2022-08-21T06:13:13.418Z,-23692.63
2022-08-21T06:15:16.096Z,-23696.72
2022-08-21T06:17:18.755Z,-23698.44
2022-08-21T06:19:23.083Z,-23698.44
2022-08-21T06:21:25.929Z,-23700.19
2022-08-21T06:23:32.939Z,-23706.94
2022-08-21T06:25:37.218Z,-23710.56
2022-08-21T06:27:40.077Z,-23713.72
2022-08-21T06:29:44.521Z,-23722.22
2022-08-21T06:31:48.443Z,-23732.28
2022-08-21T06:33:51.298Z,-23739.53
2022-08-21T06:35:55.408Z,-23742.03
2022-08-21T06:37:58.227Z,-23748.66
2022-08-21T06:40:01.028Z,-23763.75
2022-08-21T06:42:03.988Z,-23762.94
2022-08-21T06:44:12.678Z,-23780.53
2022-08-21T06:46:15.334Z,-23768.13
2022-08-21T06:48:19.514Z,-23775.34
2022-08-21T06:50:22.388Z,-23781.97
2022-08-21T06:52:26.405Z,-23790.28
2022-08-21T06:54:29.166Z,-23786.81
2022-08-21T06:56:32.343Z,-23795.94
2022-08-21T06:58:34.982Z,-23800.00
2022-08-21T07:00:41.635Z,-23798.59
2022-08-21T07:02:44.353Z,-23784.16
2022-08-21T07:04:47.087Z,-23792.31
2022-08-21T07:06:49.991Z,-23801.41
2022-08-21T07:08:54.039Z,-23806.75
2022-08-21T07:11:01.044Z,-23821.19
2022-08-21T07:13:03.806Z,-23823.06
2022-08-21T07:15:07.875Z,-23843.91
2022-08-21T07:17:10.631Z,-23864.44
2022-08-21T07:19:13.499Z,-23876.97
2022-08-21T07:21:17.609Z,-23839.06
2022-08-21T07:23:25.162Z,-23830.59
2022-08-21T07:25:29.545Z,-23854.25
2022-08-21T07:27:32.474Z,-23872.91
2022-08-21T07:29:35.957Z,-23888.25
2022-08-21T07:31:38.638Z,-23895.59
2022-08-21T07:33:42.166Z,-23945.91
2022-08-21T07:35:44.918Z,-23931.06
2022-08-21T07:37:48.238Z,-23943.88
2022-08-21T07:39:52.075Z,-23947.78
2022-08-21T07:41:56.143Z,-23964.47
2022-08-21T07:43:59.218Z,-23979.78
2022-08-21T07:46:02.071Z,-24015.59
2022-08-21T07:48:05.402Z,-23999.09
2022-08-21T07:50:08.986Z,-23965.41
2022-08-21T07:52:11.668Z,-23951.38
2022-08-21T07:54:17.161Z,-23979.31
2022-08-21T07:56:21.220Z,-24003.00
2022-08-21T07:58:25.335Z,-23976.50
2022-08-21T08:00:30.259Z,-24011.88
2022-08-21T08:02:33.060Z,-23995.97
2022-08-21T08:04:35.823Z,-23993.03
2022-08-21T08:06:38.546Z,-23923.25
2022-08-21T08:08:41.849Z,-23976.50
2022-08-21T08:10:45.908Z,-23999.72
2022-08-21T08:12:49.015Z,-24007.66
2022-08-21T08:14:53.098Z,-24016.22
2022-08-21T08:16:55.763Z,-23929.50
2022-08-21T08:18:58.534Z,-23989.75
2022-08-21T08:21:01.216Z,-23993.19
2022-08-21T08:23:04.142Z,-24017.63
2022-08-21T08:25:09.764Z,-23984.59
2022-08-21T08:27:12.583Z,-23996.91
2022-08-21T08:29:15.435Z,-23995.50
2022-08-21T08:31:19.578Z,-23979.78
2022-08-21T08:33:22.358Z,-23954.19
2022-08-21T08:35:26.065Z,-23949.34
2022-08-21T08:37:34.247Z,-23962.94
2022-08-21T08:39:37.566Z,-23970.41
2022-08-21T08:41:43.027Z,-23994.72
2022-08-21T08:43:52.740Z,-23994.41
2022-08-21T08:45:59.555Z,-24003.16
2022-08-21T08:48:14.434Z,-23995.81
2022-08-21T08:50:22.382Z,-23980.69
2022-08-21T08:52:31.719Z,-24007.34
2022-08-21T08:54:39.471Z,-24017.16
2022-08-21T08:56:42.730Z,-24056.53
2022-08-21T08:58:46.870Z,-24034.13
2022-08-21T09:00:52.673Z,-24005.16
2022-08-21T09:02:59.669Z,-24078.13
2022-08-21T09:05:04.805Z,-24047.97
2022-08-21T09:07:17.895Z,-24069.44
2022-08-21T09:09:30.720Z,-24104.81
2022-08-21T09:11:39.068Z,-24097.06
2022-08-21T09:13:57.821Z,-24124.69
2022-08-21T09:16:10.743Z,-24110.41
2022-08-21T09:18:30.669Z,-24103.44
2022-08-21T09:20:42.265Z,-24121.72
2022-08-21T09:22:55.765Z,-24118.31
2022-08-21T09:25:08.724Z,-24093.66
2022-08-21T09:27:14.128Z,-24103.28
2022-08-21T09:29:22.459Z,-24114.13
2022-08-21T09:31:28.097Z,-24127.47
2022-08-21T09:33:31.018Z,-24070.66
2022-08-21T09:35:36.075Z,-24047.66
2022-08-21T09:37:52.762Z,-24089.16
2022-08-21T09:39:55.497Z,-24095.81
2022-08-21T09:42:00.079Z,-24069.44
2022-08-21T09:44:03.752Z,-24129.00
2022-08-21T09:46:13.918Z,-24108.84
2022-08-21T09:48:20.725Z,-24106.53
2022-08-21T09:50:25.674Z,-24100.78
2022-08-21T09:52:28.388Z,-24056.53
2022-08-21T09:54:42.318Z,-24093.66
2022-08-21T09:57:14.609Z,-24122.19
2022-08-21T09:59:21.378Z,-24065.84
2022-08-21T10:01:26.944Z,-24087.13
2022-08-21T10:03:30.164Z,-24098.91
2022-08-21T10:05:32.841Z,-24095.50
2022-08-21T10:07:39.375Z,-24115.06
2022-08-21T10:09:44.080Z,-24092.09
2022-08-21T10:11:54.765Z,-24119.56
2022-08-21T10:14:05.734Z,-24113.19
2022-08-21T10:16:23.320Z,-24105.44
2022-08-21T10:18:31.913Z,-24097.69
2022-08-21T10:20:42.712Z,-24107.00
2022-08-21T10:22:54.415Z,-24098.31
2022-08-21T10:25:04.782Z,-24114.75
2022-08-21T10:27:19.957Z,-24108.53
2022-08-21T10:29:40.693Z,-24092.72
2022-08-21T10:31:55.369Z,-24057.78
2022-08-21T10:34:15.687Z,-24029.31
2022-08-21T10:36:23.512Z,-24007.97
2022-08-21T10:39:23.712Z,-24012.97
2022-08-21T10:41:39.266Z,-24029.31
2022-08-21T10:43:52.904Z,-24032.72
2022-08-21T10:46:04.180Z,-24022.13
2022-08-21T10:48:08.930Z,-23983.66
2022-08-21T10:50:20.405Z,-23996.13
2022-08-21T10:52:36.164Z,-23981.78
2022-08-21T10:54:47.781Z,-23981.00
2022-08-21T10:57:09.452Z,-23989.13
2022-08-21T10:59:30.148Z,-23996.59
2022-08-21T11:01:41.040Z,-23997.69
2022-08-21T11:03:46.984Z,-23979.78
2022-08-21T11:05:53.673Z,-23989.13
2022-08-21T11:08:02.002Z,-23988.50
2022-08-21T11:10:15.122Z,-23983.97
2022-08-21T11:12:29.310Z,-23986.63
2022-08-21T11:14:41.082Z,-23961.66
2022-08-21T11:16:59.483Z,-23978.84
2022-08-21T11:19:07.065Z,-23969.78
2022-08-21T11:21:27.305Z,-23986.63
2022-08-21T11:23:39.875Z,-23982.88
2022-08-21T11:25:47.800Z,-23955.75
2022-08-21T11:27:56.396Z,-23986.94
2022-08-21T11:30:00.860Z,-23983.19
2022-08-21T11:32:19.602Z,-23976.66
2022-08-21T11:34:38.475Z,-23988.19
2022-08-21T11:36:50.296Z,-23993.63
2022-08-21T11:38:59.898Z,-23994.13
2022-08-21T11:41:15.141Z,-24001.91
2022-08-21T11:43:29.478Z,-23991.63
2022-08-21T11:45:41.467Z,-23996.59
2022-08-21T11:47:56.018Z,-24005.94
2022-08-21T11:50:29.739Z,-23994.13
2022-08-21T11:52:39.696Z,-23995.03
2022-08-21T11:54:47.920Z,-24007.66
2022-08-21T11:56:57.507Z,-24010.00
2022-08-21T11:59:08.684Z,-24006.56
2022-08-21T12:01:17.926Z,-24005.63
2022-08-21T12:03:28.057Z,-24008.75
2022-08-21T12:05:37.170Z,-24012.81
2022-08-21T12:07:42.628Z,-23996.28
2022-08-21T12:09:55.898Z,-23992.88
2022-08-21T12:12:04.383Z,-23994.13
2022-08-21T12:14:17.545Z,-23989.28
2022-08-21T12:16:33.317Z,-23998.63
2022-08-21T12:18:38.793Z,-24005.31
2022-08-21T12:20:50.512Z,-24010.94
2022-08-21T12:23:03.717Z,-24004.25
2022-08-21T12:25:09.292Z,-24005.00
2022-08-21T12:27:25.973Z,-24004.69
2022-08-21T12:29:32.636Z,-24001.44
2022-08-21T12:31:35.419Z,-24012.66
2022-08-21T12:33:42.426Z,-24037.09
2022-08-21T12:35:46.201Z,-24031.63
2022-08-21T12:37:53.890Z,-24021.53
2022-08-21T12:40:00.693Z,-24026.81
2022-08-21T12:42:08.554Z,-24041.91
2022-08-21T12:44:16.477Z,-24029.00
2022-08-21T12:46:23.295Z,-24028.38
2022-08-21T12:48:31.268Z,-24042.69
2022-08-21T12:50:38.709Z,-24046.41
2022-08-21T12:52:48.019Z,-24028.06
2022-08-21T12:54:50.689Z,-24007.97
2022-08-21T12:57:02.052Z,-24019.81
2022-08-21T12:59:07.672Z,-24017.47
2022-08-21T13:01:19.336Z,-24009.53
2022-08-21T13:03:24.335Z,-24018.88
2022-08-21T13:05:33.894Z,-23997.53
2022-08-21T13:07:39.461Z,-24013.13
2022-08-21T13:09:48.892Z,-24014.97
2022-08-21T13:11:52.767Z,-24010.63
2022-08-21T13:13:58.173Z,-24012.50
2022-08-21T13:16:07.335Z,-24021.53
2022-08-21T13:18:23.964Z,-24019.34
2022-08-21T13:20:30.883Z,-24011.41
2022-08-21T13:22:37.879Z,-24015.13
2022-08-21T13:24:43.423Z,-24018.88
2022-08-21T13:26:47.229Z,-23998.63
2022-08-21T13:28:51.562Z,-24001.13
2022-08-21T13:30:56.672Z,-23999.88
2022-08-21T13:33:01.503Z,-24014.22
2022-08-21T13:35:13.668Z,-24004.41
2022-08-21T13:37:16.550Z,-24012.81
2022-08-21T13:39:20.862Z,-24010.63
2022-08-21T13:41:28.283Z,-24021.22
2022-08-21T13:43:34.674Z,-24025.88
2022-08-21T13:45:37.351Z,-24033.81
2022-08-21T13:47:40.283Z,-24022.00
2022-08-21T13:49:45.303Z,-24008.28
2022-08-21T13:51:51.028Z,-23998.94
2022-08-21T13:53:56.593Z,-24002.06
2022-08-21T13:56:01.080Z,-24007.50
2022-08-21T13:58:05.543Z,-23991.16
2022-08-21T14:00:14.349Z,-23988.81
2022-08-21T14:02:20.048Z,-23985.06
2022-08-21T14:04:27.024Z,-23970.41
2022-08-21T14:06:34.808Z,-23955.44
2022-08-21T14:08:42.191Z,-23958.41
2022-08-21T14:10:53.749Z,-23973.22
2022-08-21T14:13:01.187Z,-23989.75
2022-08-21T14:15:07.190Z,-23985.06
2022-08-21T14:17:23.347Z,-23991.94
2022-08-21T14:19:29.987Z,-23999.41
2022-08-21T14:21:36.087Z,-24020.28
2022-08-21T14:23:40.256Z,-24014.66
2022-08-21T14:25:45.300Z,-24007.97
2022-08-21T14:27:53.738Z,-24004.53
2022-08-21T14:30:00.875Z,-23995.19
2022-08-21T14:32:21.806Z,-23993.19
2022-08-21T14:34:35.398Z,-23990.69
2022-08-21T14:36:38.663Z,-23992.88
2022-08-21T14:38:43.014Z,-23990.69
2022-08-21T14:40:49.077Z,-23982.56
2022-08-21T14:42:52.542Z,-23988.03
2022-08-21T14:44:59.360Z,-23975.09
2022-08-21T14:47:02.173Z,-23973.22
2022-08-21T14:49:05.760Z,-23968.38
2022-08-21T14:51:08.534Z,-23964.78
2022-08-21T14:53:11.658Z,-23958.88
2022-08-21T14:55:17.755Z,-23963.22
2022-08-21T14:57:20.405Z,-23961.38
2022-08-21T14:59:24.334Z,-23962.31
2022-08-21T15:01:27.042Z,-23955.75
2022-08-21T15:03:29.892Z,-23954.19
2022-08-21T15:05:33.976Z,-23949.50
2022-08-21T15:07:37.129Z,-23954.97
2022-08-21T15:09:39.999Z,-23962.94
2022-08-21T15:11:44.265Z,-23971.50
2022-08-21T15:13:47.406Z,-23973.22
2022-08-21T15:15:53.641Z,-23976.03
2022-08-21T15:17:56.379Z,-23971.66
2022-08-21T15:19:59.137Z,-23974.94
2022-08-21T15:22:02.552Z,-23987.25
2022-08-21T15:24:05.431Z,-23988.34
2022-08-21T15:26:08.191Z,-23983.66
2022-08-21T15:28:14.220Z,-23988.81
2022-08-21T15:30:17.141Z,-23982.25
2022-08-21T15:32:23.258Z,-23976.03
2022-08-21T15:34:28.206Z,-23979.16
2022-08-21T15:36:30.926Z,-23974.16
2022-08-21T15:38:33.693Z,-23974.78
2022-08-21T15:40:37.421Z,-23974.63
2022-08-21T15:42:41.338Z,-23975.41
2022-08-21T15:44:46.951Z,-23969.47
2022-08-21T15:46:49.633Z,-23974.31
2022-08-21T15:48:54.420Z,-23975.88
2022-08-21T15:51:00.541Z,-23972.91
2022-08-21T15:53:04.233Z,-23966.97
2022-08-21T15:55:07.451Z,-23963.53
2022-08-21T15:57:11.503Z,-23969.16
2022-08-21T15:59:16.731Z,-23967.75
2022-08-21T16:01:22.643Z,-23961.97
2022-08-21T16:03:26.947Z,-23959.97
2022-08-21T16:05:29.791Z,-23962.94
2022-08-21T16:07:32.557Z,-23958.88
2022-08-21T16:09:35.336Z,-23959.50
2022-08-21T16:11:38.044Z,-23960.75
2022-08-21T16:13:44.554Z,-23962.31
2022-08-21T16:15:47.674Z,-23963.22
2022-08-21T16:17:53.571Z,-23963.22
2022-08-21T16:19:56.402Z,-23963.22
2022-08-21T16:21:59.241Z,-23963.69
2022-08-21T16:24:01.921Z,-23962.59
2022-08-21T16:26:05.731Z,-23960.75
2022-08-21T16:28:14.545Z,-23957.63
2022-08-21T16:30:20.011Z,-23956.38
2022-08-21T16:32:22.846Z,-23957.31
2022-08-21T16:34:28.514Z,-23957.16
2022-08-21T16:36:31.201Z,-23954.19
2022-08-21T16:38:36.726Z,-23952.00
2022-08-21T16:40:40.825Z,-23955.59
2022-08-21T16:42:44.990Z,-23955.75
2022-08-21T16:44:48.557Z,-23954.03
2022-08-21T16:46:51.532Z,-23952.63
2022-08-21T16:48:54.541Z,-23952.94
2022-08-21T16:50:59.270Z,-23952.63
2022-08-21T16:53:02.186Z,-23950.44
2022-08-21T16:55:06.192Z,-23950.28
2022-08-21T16:57:09.010Z,-23948.25
2022-08-21T16:59:12.661Z,-23948.41
2022-08-21T17:01:19.647Z,-23947.00
2022-08-21T17:03:31.054Z,-23944.19
2022-08-21T17:05:33.734Z,-23941.69
2022-08-21T17:07:38.185Z,-23938.88
2022-08-21T17:09:40.921Z,-23942.00
2022-08-21T17:11:47.559Z,-23935.13
2022-08-21T17:13:50.480Z,-23934.81
2022-08-21T17:15:54.326Z,-23938.41
2022-08-21T17:17:57.408Z,-23935.28
2022-08-21T17:20:00.131Z,-23934.19
2022-08-21T17:22:03.038Z,-23931.84
2022-08-21T17:24:07.747Z,-23928.28
2022-08-21T17:26:12.806Z,-23928.56
2022-08-21T17:28:20.132Z,-23924.50
2022-08-21T17:30:23.515Z,-23923.25
2022-08-21T17:32:26.559Z,-23919.19
2022-08-21T17:34:31.179Z,-23919.03
2022-08-21T17:36:35.133Z,-23918.09
2022-08-21T17:38:38.028Z,-23915.13
2022-08-21T17:40:42.477Z,-23915.91
2022-08-21T17:42:46.511Z,-23912.16
2022-08-21T17:44:49.604Z,-23907.94
2022-08-21T17:46:52.351Z,-23905.13
2022-08-21T17:48:55.220Z,-23904.50
2022-08-21T17:50:57.983Z,-23906.06
2022-08-21T17:53:00.878Z,-23897.63
2022-08-21T17:55:03.753Z,-23896.38
2022-08-21T17:57:08.962Z,-23891.69
2022-08-21T17:59:12.670Z,-23888.25
2022-08-21T18:01:16.051Z,-23886.53
2022-08-21T18:03:23.227Z,-23885.13
2022-08-21T18:05:25.909Z,-23884.31
2022-08-21T18:07:32.820Z,-23880.41
2022-08-21T18:09:35.742Z,-23876.34
2022-08-21T18:11:38.706Z,-23873.84
2022-08-21T18:13:43.268Z,-23870.72
2022-08-21T18:15:51.270Z,-23867.09
2022-08-21T18:17:54.289Z,-23866.63
2022-08-21T18:19:59.520Z,-23863.50
2022-08-21T18:22:04.543Z,-23862.25
2022-08-21T18:24:07.771Z,-23859.75
2022-08-21T18:26:11.058Z,-23857.56
2022-08-21T18:28:14.316Z,-23856.00
2022-08-21T18:30:21.473Z,-23854.09
2022-08-21T18:32:30.486Z,-23850.97
2022-08-21T18:34:39.288Z,-23848.16
2022-08-21T18:36:41.987Z,-23848.16
2022-08-21T18:38:44.656Z,-23846.59
2022-08-21T18:40:55.601Z,-23840.94
2022-08-21T18:43:00.834Z,-23840.16
2022-08-21T18:45:07.973Z,-23838.75
2022-08-21T18:47:18.485Z,-23837.34
2022-08-21T18:49:21.227Z,-23837.19
2022-08-21T18:51:25.095Z,-23836.25
2022-08-21T18:53:29.228Z,-23834.38
2022-08-21T18:55:32.778Z,-23831.22
2022-08-21T18:57:39.775Z,-23830.44
2022-08-21T18:59:43.554Z,-23829.19
2022-08-21T19:01:48.229Z,-23827.47
2022-08-21T19:03:52.589Z,-23824.94
2022-08-21T19:05:56.110Z,-23825.13
2022-08-21T19:07:58.885Z,-23823.38
2022-08-21T19:10:27.517Z,-23823.69
2022-08-21T19:12:29.518Z,-23823.53
2022-08-21T19:14:33.207Z,-23821.50
2022-08-21T19:16:36.627Z,-23820.25
2022-08-21T19:18:41.730Z,-23818.69
2022-08-21T19:20:47.280Z,-23818.38
2022-08-21T19:25:13.056Z,-23816.47
2022-08-21T19:27:15.795Z,-23816.47
2022-08-21T19:29:20.751Z,-23813.81
2022-08-21T19:31:41.412Z,-23813.81
2022-08-21T19:33:50.802Z,-23813.66
2022-08-21T19:35:54.947Z,-23811.78
2022-08-21T19:37:57.728Z,-23807.53
2022-08-21T19:40:00.429Z,-23805.81
2022-08-21T19:42:03.575Z,-23806.13
2022-08-21T19:44:09.205Z,-23806.44
2022-08-21T19:46:12.943Z,-23805.66
2022-08-21T19:48:16.392Z,-23808.31
2022-08-21T19:50:21.885Z,-23807.38
2022-08-21T19:52:26.114Z,-23808.03
2022-08-21T19:54:33.055Z,-23805.19
2022-08-21T19:56:35.829Z,-23802.53
2022-08-21T19:58:41.473Z,-23802.53
2022-08-21T20:00:44.271Z,-23800.94
2022-08-21T20:02:48.216Z,-23802.06
2022-08-21T20:04:54.065Z,-23799.84
2022-08-21T20:06:57.883Z,-23798.75
2022-08-21T20:09:03.002Z,-23797.66
2022-08-21T20:11:12.221Z,-23797.66
2022-08-21T20:13:15.033Z,-23797.97
2022-08-21T20:15:22.420Z,-23796.09
2022-08-21T20:17:26.144Z,-23797.97
2022-08-21T20:19:28.836Z,-23795.78
2022-08-21T20:21:44.072Z,-23793.88
2022-08-21T20:23:48.743Z,-23792.63
2022-08-21T20:25:53.441Z,-23793.25
2022-08-21T20:27:56.152Z,-23791.06
2022-08-21T20:29:58.860Z,-23787.91
2022-08-21T20:32:04.335Z,-23788.88
2022-08-21T20:34:07.124Z,-23789.50
2022-08-21T20:36:10.172Z,-23788.09
2022-08-21T20:38:13.377Z,-23787.91
2022-08-21T20:40:20.884Z,-23787.28
2022-08-21T20:42:27.463Z,-23785.09
2022-08-21T20:44:32.797Z,-23782.59
2022-08-21T20:46:36.228Z,-23782.59
2022-08-21T20:48:49.099Z,-23781.97
2022-08-21T20:50:57.995Z,-23781.34
2022-08-21T20:53:14.987Z,-23779.13
2022-08-21T20:55:29.103Z,-23778.97
2022-08-21T20:57:39.221Z,-23779.75
2022-08-21T20:59:51.404Z,-23778.50
2022-08-21T21:02:00.385Z,-23778.03
2022-08-21T21:04:10.035Z,-23774.72
2022-08-21T21:06:22.595Z,-23771.44
2022-08-21T21:08:30.436Z,-23769.69
2022-08-21T21:10:39.761Z,-23769.38
2022-08-21T21:12:53.416Z,-23767.66
2022-08-21T21:15:01.396Z,-23764.84
2022-08-21T21:17:14.513Z,-23761.22
2022-08-21T21:19:24.008Z,-23759.81
2022-08-21T21:21:33.436Z,-23759.50
2022-08-21T21:23:45.057Z,-23759.34
2022-08-21T21:25:56.693Z,-23758.72
2022-08-21T21:28:06.937Z,-23757.91
2022-08-21T21:30:20.948Z,-23756.03
2022-08-21T21:32:23.791Z,-23751.78
2022-08-21T21:34:28.549Z,-23753.69
2022-08-21T21:36:43.922Z,-23749.44
2022-08-21T21:39:04.661Z,-23748.66
2022-08-21T21:41:18.311Z,-23749.91
2022-08-21T21:43:37.662Z,-23749.59
2022-08-21T21:45:58.733Z,-23743.44
2022-08-21T21:48:14.102Z,-23747.06
2022-08-21T21:50:32.962Z,-23746.13
2022-08-21T21:52:54.593Z,-23744.72
2022-08-21T21:55:23.740Z,-23745.81
2022-08-21T21:57:58.783Z,-23745.66
2022-08-21T22:00:09.174Z,-23744.88
2022-08-21T22:02:33.838Z,-23745.19
2022-08-21T22:04:50.920Z,-23744.88
2022-08-21T22:07:00.115Z,-23746.13
2022-08-21T22:09:10.731Z,-23742.97
2022-08-21T22:11:24.146Z,-23740.31
2022-08-21T22:13:38.614Z,-23737.31
2022-08-21T22:15:43.068Z,-23741.09
2022-08-21T22:17:50.243Z,-23741.25
2022-08-21T22:19:57.446Z,-23740.78
2022-08-21T22:22:07.426Z,-23740.94
2022-08-21T22:24:16.699Z,-23741.88
2022-08-21T22:26:23.450Z,-23739.84
2022-08-21T22:28:28.817Z,-23739.84
2022-08-21T22:30:45.463Z,-23740.16
2022-08-21T22:32:50.592Z,-23739.84
2022-08-21T22:35:12.155Z,-23739.84
2022-08-21T22:37:14.906Z,-23739.53
2022-08-21T22:39:30.235Z,-23736.69
2022-08-21T22:41:39.917Z,-23737.94
2022-08-21T22:43:54.376Z,-23736.38
2022-08-21T22:46:04.105Z,-23737.94
2022-08-21T22:48:11.304Z,-23739.53
2022-08-21T22:50:34.924Z,-23737.63
2022-08-21T22:52:45.648Z,-23734.97
2022-08-21T22:54:51.667Z,-23734.19
2022-08-21T22:57:01.175Z,-23733.22
2022-08-21T22:59:07.545Z,-23734.66
2022-08-21T23:01:33.407Z,-23731.50
2022-08-21T23:03:44.651Z,-23730.72
2022-08-21T23:05:49.673Z,-23727.88
2022-08-21T23:07:52.951Z,-23726.16
2022-08-21T23:09:57.175Z,-23725.38
2022-08-21T23:12:14.070Z,-23724.44
2022-08-21T23:14:25.154Z,-23725.06
2022-08-21T23:16:47.737Z,-23726.00
2022-08-21T23:19:03.707Z,-23726.47
2022-08-21T23:21:16.873Z,-23722.84
2022-08-21T23:23:24.634Z,-23719.38
2022-08-21T23:25:44.083Z,-23720.19
2022-08-21T23:27:57.331Z,-23716.88
2022-08-21T23:30:05.670Z,-23718.44
2022-08-21T23:32:26.204Z,-23720.97
2022-08-21T23:34:45.891Z,-23718.28
2022-08-21T23:37:43.972Z,-23714.66
2022-08-21T23:42:49.349Z,-23712.78
2022-08-21T23:45:13.930Z,-23715.28
2022-08-21T23:47:35.849Z,-23713.56
2022-08-21T23:49:48.638Z,-23711.81
2022-08-21T23:52:10.826Z,-23707.56
2022-08-21T23:54:22.461Z,-23709.47
2022-08-21T23:56:38.376Z,-23706.78
2022-08-21T23:58:50.339Z,-23706.78
